sensor_id;sensor_type;location;lat;lon;timestamp;pressure;altitude;pressure_sealevel;temperature;humidity
23361;BME280;11852;50.082;18.554;2023-07-31T00:00:26;98246.0;;;20.1;76.25
23361;BME280;11852;50.082;18.554;2023-07-31T00:01:31;98246.0;;;20.1;76.2
23361;BME280;11852;50.082;18.554;2023-07-31T00:02:36;98242.01;;;20.1;76.16
23361;BME280;11852;50.082;18.554;2023-07-31T00:03:40;98242.01;;;20.07;76.38
23361;BME280;11852;50.082;18.554;2023-07-31T00:04:45;98241.5;;;20.02;76.51
23361;BME280;11852;50.082;18.554;2023-07-31T00:05:50;98240.0;;;20.01;76.55
23361;BME280;11852;50.082;18.554;2023-07-31T00:06:55;98240.5;;;19.95;76.75
23361;BME280;11852;50.082;18.554;2023-07-31T00:07:59;98239.5;;;19.94;76.77
23361;BME280;11852;50.082;18.554;2023-07-31T00:09:04;98243.01;;;19.93;76.93
23361;BME280;11852;50.082;18.554;2023-07-31T00:10:09;98240.5;;;19.9;77.06
23361;BME280;11852;50.082;18.554;2023-07-31T00:11:14;98241.0;;;19.88;77.03
23361;BME280;11852;50.082;18.554;2023-07-31T00:12:19;98238.5;;;19.83;77.23
23361;BME280;11852;50.082;18.554;2023-07-31T00:13:23;98236.0;;;19.81;77.29
23361;BME280;11852;50.082;18.554;2023-07-31T00:14:28;98236.5;;;19.8;77.36
23361;BME280;11852;50.082;18.554;2023-07-31T00:15:33;98240.5;;;19.77;77.39
23361;BME280;11852;50.082;18.554;2023-07-31T00:16:38;98241.5;;;19.75;77.57
23361;BME280;11852;50.082;18.554;2023-07-31T00:17:42;98246.5;;;19.74;77.64
23361;BME280;11852;50.082;18.554;2023-07-31T00:18:47;98241.0;;;19.72;77.77
23361;BME280;11852;50.082;18.554;2023-07-31T00:19:52;98238.0;;;19.69;77.85
23361;BME280;11852;50.082;18.554;2023-07-31T00:20:56;98245.49;;;19.7;77.85
23361;BME280;11852;50.082;18.554;2023-07-31T00:22:01;98240.5;;;19.67;78.1
23361;BME280;11852;50.082;18.554;2023-07-31T00:23:06;98241.0;;;19.67;78.07
23361;BME280;11852;50.082;18.554;2023-07-31T00:24:11;98239.5;;;19.67;78.1
23361;BME280;11852;50.082;18.554;2023-07-31T00:25:15;98238.0;;;19.65;78.26
23361;BME280;11852;50.082;18.554;2023-07-31T00:26:20;98238.5;;;19.64;78.38
23361;BME280;11852;50.082;18.554;2023-07-31T00:27:25;98240.5;;;19.64;78.43
23361;BME280;11852;50.082;18.554;2023-07-31T00:28:30;98238.5;;;19.61;78.43
23361;BME280;11852;50.082;18.554;2023-07-31T00:29:34;98242.0;;;19.6;78.48
23361;BME280;11852;50.082;18.554;2023-07-31T00:30:39;98240.5;;;19.6;78.57
23361;BME280;11852;50.082;18.554;2023-07-31T00:31:44;98239.5;;;19.6;78.51
23361;BME280;11852;50.082;18.554;2023-07-31T00:32:48;98241.0;;;19.6;78.48
23361;BME280;11852;50.082;18.554;2023-07-31T00:33:53;98242.01;;;19.6;78.54
23361;BME280;11852;50.082;18.554;2023-07-31T00:34:58;98242.51;;;19.6;78.49
23361;BME280;11852;50.082;18.554;2023-07-31T00:36:03;98242.01;;;19.61;78.44
23361;BME280;11852;50.082;18.554;2023-07-31T00:37:07;98248.0;;;19.58;78.65
23361;BME280;11852;50.082;18.554;2023-07-31T00:38:12;98248.0;;;19.57;78.8
23361;BME280;11852;50.082;18.554;2023-07-31T00:39:17;98249.5;;;19.57;78.73
23361;BME280;11852;50.082;18.554;2023-07-31T00:40:22;98248.5;;;19.55;78.9
23361;BME280;11852;50.082;18.554;2023-07-31T00:41:26;98251.5;;;19.55;78.89
23361;BME280;11852;50.082;18.554;2023-07-31T00:42:31;98248.0;;;19.55;79.01
23361;BME280;11852;50.082;18.554;2023-07-31T00:43:36;98252.0;;;19.53;79.06
23361;BME280;11852;50.082;18.554;2023-07-31T00:44:40;98253.0;;;19.53;79.08
23361;BME280;11852;50.082;18.554;2023-07-31T00:45:45;98251.0;;;19.53;79.05
23361;BME280;11852;50.082;18.554;2023-07-31T00:46:50;98249.5;;;19.52;79.15
23361;BME280;11852;50.082;18.554;2023-07-31T00:47:55;98250.5;;;19.5;79.19
23361;BME280;11852;50.082;18.554;2023-07-31T00:48:59;98248.0;;;19.51;79.13
23361;BME280;11852;50.082;18.554;2023-07-31T00:50:04;98251.0;;;19.52;79.15
23361;BME280;11852;50.082;18.554;2023-07-31T00:51:09;98243.51;;;19.51;79.19
23361;BME280;11852;50.082;18.554;2023-07-31T00:52:14;98249.0;;;19.51;79.37
23361;BME280;11852;50.082;18.554;2023-07-31T00:53:18;98248.5;;;19.51;79.35
23361;BME280;11852;50.082;18.554;2023-07-31T00:54:23;98245.0;;;19.51;79.46
23361;BME280;11852;50.082;18.554;2023-07-31T00:55:28;98245.0;;;19.51;79.32
23361;BME280;11852;50.082;18.554;2023-07-31T00:56:32;98250.5;;;19.52;79.33
23361;BME280;11852;50.082;18.554;2023-07-31T00:57:37;98250.5;;;19.52;79.51
23361;BME280;11852;50.082;18.554;2023-07-31T00:58:42;98252.0;;;19.55;79.65
23361;BME280;11852;50.082;18.554;2023-07-31T00:59:47;98246.5;;;19.57;79.67
23361;BME280;11852;50.082;18.554;2023-07-31T01:00:51;98248.5;;;19.6;79.63
23361;BME280;11852;50.082;18.554;2023-07-31T01:01:56;98253.0;;;19.65;79.56
23361;BME280;11852;50.082;18.554;2023-07-31T01:03:01;98255.01;;;19.68;79.47
23361;BME280;11852;50.082;18.554;2023-07-31T01:04:05;98253.5;;;19.75;79.26
23361;BME280;11852;50.082;18.554;2023-07-31T01:05:10;98258.5;;;19.76;79.19
23361;BME280;11852;50.082;18.554;2023-07-31T01:06:17;98256.5;;;19.81;79.16
23361;BME280;11852;50.082;18.554;2023-07-31T01:07:22;98260.5;;;19.83;79.13
23361;BME280;11852;50.082;18.554;2023-07-31T01:08:37;98259.5;;;19.85;78.97
23361;BME280;11852;50.082;18.554;2023-07-31T01:09:44;98257.99;;;19.85;78.72
23361;BME280;11852;50.082;18.554;2023-07-31T01:10:55;98256.5;;;19.85;78.65
23361;BME280;11852;50.082;18.554;2023-07-31T01:11:57;98259.5;;;19.89;78.65
23361;BME280;11852;50.082;18.554;2023-07-31T01:13:01;98256.99;;;19.91;78.54
23361;BME280;11852;50.082;18.554;2023-07-31T01:14:06;98257.99;;;19.93;78.49
23361;BME280;11852;50.082;18.554;2023-07-31T01:15:11;98257.5;;;19.94;78.25
23361;BME280;11852;50.082;18.554;2023-07-31T01:16:16;98259.5;;;19.9;78.22
23361;BME280;11852;50.082;18.554;2023-07-31T01:17:20;98259.5;;;19.78;78.59
23361;BME280;11852;50.082;18.554;2023-07-31T01:18:25;98261.0;;;19.79;78.54
23361;BME280;11852;50.082;18.554;2023-07-31T01:19:30;98260.5;;;19.89;78.29
23361;BME280;11852;50.082;18.554;2023-07-31T01:20:35;98262.0;;;19.93;78.04
23361;BME280;11852;50.082;18.554;2023-07-31T01:26:39;98273.0;;;19.55;78.77
23361;BME280;11852;50.082;18.554;2023-07-31T01:27:48;98274.5;;;19.7;78.24
23361;BME280;11852;50.082;18.554;2023-07-31T01:28:55;98275.5;;;19.8;77.98
23361;BME280;11852;50.082;18.554;2023-07-31T01:31:10;98276.0;;;19.91;77.76
23361;BME280;11852;50.082;18.554;2023-07-31T01:32:14;98278.0;;;19.91;77.66
23361;BME280;11852;50.082;18.554;2023-07-31T01:33:18;98279.0;;;19.83;77.47
23361;BME280;11852;50.082;18.554;2023-07-31T01:34:23;98276.0;;;19.55;78.04
23361;BME280;11852;50.082;18.554;2023-07-31T01:35:28;98279.51;;;19.52;77.71
23361;BME280;11852;50.082;18.554;2023-07-31T01:36:33;98278.5;;;19.49;77.72
23361;BME280;11852;50.082;18.554;2023-07-31T01:37:37;98276.0;;;19.67;77.19
23361;BME280;11852;50.082;18.554;2023-07-31T01:38:42;98277.0;;;19.74;76.92
23361;BME280;11852;50.082;18.554;2023-07-31T01:39:47;98275.5;;;19.76;76.9
23361;BME280;11852;50.082;18.554;2023-07-31T01:40:52;98278.0;;;19.69;77.17
23361;BME280;11852;50.082;18.554;2023-07-31T01:41:56;98281.0;;;19.64;76.99
23361;BME280;11852;50.082;18.554;2023-07-31T01:43:01;98278.0;;;19.15;78.6
23361;BME280;11852;50.082;18.554;2023-07-31T01:44:06;98278.0;;;19.23;78.0
23361;BME280;11852;50.082;18.554;2023-07-31T01:45:11;98277.5;;;19.44;77.17
23361;BME280;11852;50.082;18.554;2023-07-31T01:46:16;98280.01;;;19.49;77.1
23361;BME280;11852;50.082;18.554;2023-07-31T01:47:20;98279.0;;;19.55;76.83
23361;BME280;11852;50.082;18.554;2023-07-31T01:48:25;98280.01;;;19.45;76.94
23361;BME280;11852;50.082;18.554;2023-07-31T01:49:30;98280.51;;;19.49;76.79
23361;BME280;11852;50.082;18.554;2023-07-31T01:50:34;98278.0;;;19.69;76.13
23361;BME280;11852;50.082;18.554;2023-07-31T01:51:39;98278.0;;;19.65;76.15
23361;BME280;11852;50.082;18.554;2023-07-31T01:52:44;98280.5;;;19.52;76.27
23361;BME280;11852;50.082;18.554;2023-07-31T01:53:48;98279.5;;;19.45;75.67
23361;BME280;11852;50.082;18.554;2023-07-31T01:54:53;98276.0;;;19.39;75.61
23361;BME280;11852;50.082;18.554;2023-07-31T01:55:58;98277.5;;;19.56;75.27
23361;BME280;11852;50.082;18.554;2023-07-31T01:57:03;98278.5;;;19.48;75.31
23361;BME280;11852;50.082;18.554;2023-07-31T01:58:08;98275.0;;;19.37;75.26
23361;BME280;11852;50.082;18.554;2023-07-31T01:59:12;98272.5;;;19.42;75.1
23361;BME280;11852;50.082;18.554;2023-07-31T02:00:17;98272.0;;;19.28;75.29
23361;BME280;11852;50.082;18.554;2023-07-31T02:01:22;98275.5;;;19.27;75.07
23361;BME280;11852;50.082;18.554;2023-07-31T02:02:27;98278.0;;;19.31;74.9
23361;BME280;11852;50.082;18.554;2023-07-31T02:03:31;98279.0;;;19.3;75.01
23361;BME280;11852;50.082;18.554;2023-07-31T02:04:36;98279.0;;;19.44;74.65
23361;BME280;11852;50.082;18.554;2023-07-31T02:05:46;98281.5;;;19.49;74.43
23361;BME280;11852;50.082;18.554;2023-07-31T02:06:52;98284.0;;;19.28;74.71
23361;BME280;11852;50.082;18.554;2023-07-31T02:07:55;98286.0;;;19.44;74.37
23361;BME280;11852;50.082;18.554;2023-07-31T02:09:00;98284.0;;;19.48;74.24
23361;BME280;11852;50.082;18.554;2023-07-31T02:10:05;98288.0;;;19.3;74.7
23361;BME280;11852;50.082;18.554;2023-07-31T02:11:10;98288.5;;;19.2;73.82
23361;BME280;11852;50.082;18.554;2023-07-31T02:12:15;98287.0;;;19.22;73.36
23361;BME280;11852;50.082;18.554;2023-07-31T02:13:20;98290.0;;;19.13;73.58
23361;BME280;11852;50.082;18.554;2023-07-31T02:14:24;98288.5;;;18.84;74.18
23361;BME280;11852;50.082;18.554;2023-07-31T02:15:29;98289.5;;;18.99;73.58
23361;BME280;11852;50.082;18.554;2023-07-31T02:16:34;98290.5;;;18.98;73.36
23361;BME280;11852;50.082;18.554;2023-07-31T02:17:39;98293.5;;;19.03;73.03
23361;BME280;11852;50.082;18.554;2023-07-31T02:18:44;98294.99;;;19.05;72.9
23361;BME280;11852;50.082;18.554;2023-07-31T02:19:48;98293.5;;;18.92;73.01
23361;BME280;11852;50.082;18.554;2023-07-31T02:20:53;98293.5;;;19.18;71.92
23361;BME280;11852;50.082;18.554;2023-07-31T02:21:58;98295.49;;;19.23;71.75
23361;BME280;11852;50.082;18.554;2023-07-31T02:23:03;98299.0;;;19.28;71.19
23361;BME280;11852;50.082;18.554;2023-07-31T02:24:07;98297.0;;;19.13;70.76
23361;BME280;11852;50.082;18.554;2023-07-31T02:25:12;98297.0;;;19.04;71.03
23361;BME280;11852;50.082;18.554;2023-07-31T02:26:17;98296.5;;;19.21;70.36
23361;BME280;11852;50.082;18.554;2023-07-31T02:27:22;98300.0;;;19.2;70.24
23361;BME280;11852;50.082;18.554;2023-07-31T02:28:26;98302.0;;;19.08;70.18
23361;BME280;11852;50.082;18.554;2023-07-31T02:29:31;98305.5;;;18.92;70.17
23361;BME280;11852;50.082;18.554;2023-07-31T02:30:36;98309.5;;;18.82;69.96
23361;BME280;11852;50.082;18.554;2023-07-31T02:31:41;98309.0;;;18.96;69.5
23361;BME280;11852;50.082;18.554;2023-07-31T02:32:45;98307.99;;;18.72;69.69
23361;BME280;11852;50.082;18.554;2023-07-31T02:33:50;98309.0;;;18.75;69.53
23361;BME280;11852;50.082;18.554;2023-07-31T02:34:55;98311.0;;;18.86;69.1
23361;BME280;11852;50.082;18.554;2023-07-31T02:35:59;98310.5;;;18.85;69.06
23361;BME280;11852;50.082;18.554;2023-07-31T02:37:04;98313.0;;;18.81;69.43
23361;BME280;11852;50.082;18.554;2023-07-31T02:38:09;98313.5;;;19.02;68.93
23361;BME280;11852;50.082;18.554;2023-07-31T02:39:14;98314.0;;;19.11;68.9
23361;BME280;11852;50.082;18.554;2023-07-31T02:40:19;98317.01;;;19.16;68.82
23361;BME280;11852;50.082;18.554;2023-07-31T02:41:24;98315.5;;;19.01;69.01
23361;BME280;11852;50.082;18.554;2023-07-31T02:42:28;98318.0;;;19.08;68.88
23361;BME280;11852;50.082;18.554;2023-07-31T02:43:33;98317.51;;;19.17;68.72
23361;BME280;11852;50.082;18.554;2023-07-31T02:44:38;98319.5;;;19.16;68.56
23361;BME280;11852;50.082;18.554;2023-07-31T02:45:42;98319.0;;;19.08;68.74
23361;BME280;11852;50.082;18.554;2023-07-31T02:46:47;98319.0;;;19.01;68.74
23361;BME280;11852;50.082;18.554;2023-07-31T02:47:52;98321.0;;;19.09;68.51
23361;BME280;11852;50.082;18.554;2023-07-31T02:48:57;98320.49;;;18.98;68.8
23361;BME280;11852;50.082;18.554;2023-07-31T02:50:02;98323.0;;;19.06;68.6
23361;BME280;11852;50.082;18.554;2023-07-31T02:51:06;98324.5;;;19.09;68.56
23361;BME280;11852;50.082;18.554;2023-07-31T02:52:11;98325.5;;;18.86;69.5
23361;BME280;11852;50.082;18.554;2023-07-31T02:53:16;98324.5;;;18.95;69.22
23361;BME280;11852;50.082;18.554;2023-07-31T02:54:20;98327.0;;;19.06;68.99
23361;BME280;11852;50.082;18.554;2023-07-31T02:55:25;98326.0;;;19.17;68.78
23361;BME280;11852;50.082;18.554;2023-07-31T02:56:30;98327.5;;;19.22;68.85
23361;BME280;11852;50.082;18.554;2023-07-31T02:57:35;98326.5;;;19.22;68.93
23361;BME280;11852;50.082;18.554;2023-07-31T02:58:39;98325.5;;;19.09;69.6
23361;BME280;11852;50.082;18.554;2023-07-31T02:59:44;98328.5;;;19.17;69.45
23361;BME280;11852;50.082;18.554;2023-07-31T03:00:49;98325.5;;;19.01;69.74
23361;BME280;11852;50.082;18.554;2023-07-31T03:01:53;98324.5;;;19.12;69.4
23361;BME280;11852;50.082;18.554;2023-07-31T03:02:58;98325.0;;;19.11;69.57
23361;BME280;11852;50.082;18.554;2023-07-31T03:04:03;98325.0;;;19.13;69.64
23361;BME280;11852;50.082;18.554;2023-07-31T03:05:08;98322.0;;;19.17;69.58
23361;BME280;11852;50.082;18.554;2023-07-31T03:06:12;98323.5;;;19.23;69.6
23361;BME280;11852;50.082;18.554;2023-07-31T03:07:17;98326.5;;;19.2;69.8
23361;BME280;11852;50.082;18.554;2023-07-31T03:08:22;98323.0;;;19.24;69.78
23361;BME280;11852;50.082;18.554;2023-07-31T03:09:27;98325.0;;;19.26;69.74
23361;BME280;11852;50.082;18.554;2023-07-31T03:10:31;98324.0;;;19.29;69.72
23361;BME280;11852;50.082;18.554;2023-07-31T03:11:36;98323.0;;;19.26;69.91
23361;BME280;11852;50.082;18.554;2023-07-31T03:12:41;98323.5;;;19.27;69.89
23361;BME280;11852;50.082;18.554;2023-07-31T03:13:45;98324.5;;;18.92;71.23
23361;BME280;11852;50.082;18.554;2023-07-31T03:14:50;98325.5;;;19.06;70.64
23361;BME280;11852;50.082;18.554;2023-07-31T03:15:55;98327.5;;;19.17;70.37
23361;BME280;11852;50.082;18.554;2023-07-31T03:17:00;98329.0;;;19.24;70.32
23361;BME280;11852;50.082;18.554;2023-07-31T03:18:04;98329.0;;;19.21;70.69
23361;BME280;11852;50.082;18.554;2023-07-31T03:19:09;98329.0;;;19.23;70.83
23361;BME280;11852;50.082;18.554;2023-07-31T03:20:14;98327.5;;;19.21;71.21
23361;BME280;11852;50.082;18.554;2023-07-31T03:21:18;98328.5;;;19.01;72.21
23361;BME280;11852;50.082;18.554;2023-07-31T03:22:23;98328.0;;;19.11;71.85
23361;BME280;11852;50.082;18.554;2023-07-31T03:23:28;98327.0;;;19.13;71.78
23361;BME280;11852;50.082;18.554;2023-07-31T03:24:33;98329.51;;;19.21;71.75
23361;BME280;11852;50.082;18.554;2023-07-31T03:25:37;98329.0;;;18.99;72.41
23361;BME280;11852;50.082;18.554;2023-07-31T03:26:42;98329.0;;;18.97;72.71
23361;BME280;11852;50.082;18.554;2023-07-31T03:27:47;98331.5;;;19.02;72.65
23361;BME280;11852;50.082;18.554;2023-07-31T03:28:52;98329.51;;;19.1;72.44
23361;BME280;11852;50.082;18.554;2023-07-31T03:29:56;98333.5;;;19.15;72.32
23361;BME280;11852;50.082;18.554;2023-07-31T03:31:01;98330.0;;;19.16;72.43
23361;BME280;11852;50.082;18.554;2023-07-31T03:32:06;98328.5;;;19.23;72.36
23361;BME280;11852;50.082;18.554;2023-07-31T03:33:11;98329.5;;;19.24;72.65
23361;BME280;11852;50.082;18.554;2023-07-31T03:34:16;98327.5;;;19.29;72.87
23361;BME280;11852;50.082;18.554;2023-07-31T03:35:20;98330.0;;;19.3;73.4
23361;BME280;11852;50.082;18.554;2023-07-31T03:36:25;98327.0;;;19.28;73.71
23361;BME280;11852;50.082;18.554;2023-07-31T03:37:29;98327.5;;;19.24;74.27
23361;BME280;11852;50.082;18.554;2023-07-31T03:38:34;98330.01;;;19.09;74.54
23361;BME280;11852;50.082;18.554;2023-07-31T03:39:39;98330.0;;;19.19;74.23
23361;BME280;11852;50.082;18.554;2023-07-31T03:40:44;98331.5;;;19.22;74.26
23361;BME280;11852;50.082;18.554;2023-07-31T03:41:48;98325.5;;;19.27;74.3
23361;BME280;11852;50.082;18.554;2023-07-31T03:42:53;98329.0;;;19.29;74.17
23361;BME280;11852;50.082;18.554;2023-07-31T03:43:58;98328.0;;;19.28;74.23
23361;BME280;11852;50.082;18.554;2023-07-31T03:45:03;98331.5;;;19.3;74.32
23361;BME280;11852;50.082;18.554;2023-07-31T03:46:08;98330.0;;;19.15;74.9
23361;BME280;11852;50.082;18.554;2023-07-31T03:47:12;98332.5;;;19.18;74.43
23361;BME280;11852;50.082;18.554;2023-07-31T03:48:17;98331.5;;;19.23;74.18
23361;BME280;11852;50.082;18.554;2023-07-31T03:49:22;98329.0;;;19.26;74.19
23361;BME280;11852;50.082;18.554;2023-07-31T03:50:27;98331.0;;;19.29;74.18
23361;BME280;11852;50.082;18.554;2023-07-31T03:51:32;98330.01;;;19.31;74.28
23361;BME280;11852;50.082;18.554;2023-07-31T03:52:36;98328.5;;;19.26;74.46
23361;BME280;11852;50.082;18.554;2023-07-31T03:53:41;98331.0;;;19.3;74.43
23361;BME280;11852;50.082;18.554;2023-07-31T03:54:46;98329.5;;;19.3;74.44
23361;BME280;11852;50.082;18.554;2023-07-31T03:55:51;98330.5;;;19.31;74.39
23361;BME280;11852;50.082;18.554;2023-07-31T03:56:55;98331.0;;;19.33;74.46
23361;BME280;11852;50.082;18.554;2023-07-31T03:58:00;98332.49;;;19.35;74.42
23361;BME280;11852;50.082;18.554;2023-07-31T03:59:05;98332.0;;;19.34;74.46
23361;BME280;11852;50.082;18.554;2023-07-31T04:00:10;98333.5;;;19.35;74.41
23361;BME280;11852;50.082;18.554;2023-07-31T04:01:14;98334.0;;;19.33;74.49
23361;BME280;11852;50.082;18.554;2023-07-31T04:02:19;98331.5;;;19.34;74.49
23361;BME280;11852;50.082;18.554;2023-07-31T04:03:24;98331.5;;;19.33;74.53
23361;BME280;11852;50.082;18.554;2023-07-31T04:04:29;98333.5;;;19.3;74.54
23361;BME280;11852;50.082;18.554;2023-07-31T04:05:37;98334.0;;;19.33;74.51
23361;BME280;11852;50.082;18.554;2023-07-31T04:06:38;98331.49;;;19.33;74.36
23361;BME280;11852;50.082;18.554;2023-07-31T04:07:43;98333.0;;;19.33;74.49
23361;BME280;11852;50.082;18.554;2023-07-31T04:08:48;98332.99;;;19.35;74.49
23361;BME280;11852;50.082;18.554;2023-07-31T04:09:53;98334.5;;;19.34;74.44
23361;BME280;11852;50.082;18.554;2023-07-31T04:10:57;98333.5;;;19.34;74.28
23361;BME280;11852;50.082;18.554;2023-07-31T04:12:02;98337.5;;;19.38;74.08
23361;BME280;11852;50.082;18.554;2023-07-31T04:13:07;98341.0;;;19.41;74.31
23361;BME280;11852;50.082;18.554;2023-07-31T04:14:12;98338.5;;;19.39;74.54
23361;BME280;11852;50.082;18.554;2023-07-31T04:15:16;98337.5;;;19.41;74.5
23361;BME280;11852;50.082;18.554;2023-07-31T04:16:21;98338.5;;;19.41;74.46
23361;BME280;11852;50.082;18.554;2023-07-31T04:17:26;98338.0;;;19.42;74.52
23361;BME280;11852;50.082;18.554;2023-07-31T04:18:30;98339.0;;;19.44;74.71
23361;BME280;11852;50.082;18.554;2023-07-31T04:19:35;98337.0;;;19.4;74.52
23361;BME280;11852;50.082;18.554;2023-07-31T04:20:40;98339.0;;;19.4;74.65
23361;BME280;11852;50.082;18.554;2023-07-31T04:21:45;98341.5;;;19.42;74.54
23361;BME280;11852;50.082;18.554;2023-07-31T04:22:49;98344.5;;;19.43;74.54
23361;BME280;11852;50.082;18.554;2023-07-31T04:23:54;98344.0;;;19.41;74.67
23361;BME280;11852;50.082;18.554;2023-07-31T04:24:59;98345.5;;;19.4;74.81
23361;BME280;11852;50.082;18.554;2023-07-31T04:26:04;98345.5;;;19.31;74.97
23361;BME280;11852;50.082;18.554;2023-07-31T04:27:08;98347.5;;;19.36;74.83
23361;BME280;11852;50.082;18.554;2023-07-31T04:28:13;98347.5;;;19.37;74.71
23361;BME280;11852;50.082;18.554;2023-07-31T04:29:18;98348.5;;;19.4;74.68
23361;BME280;11852;50.082;18.554;2023-07-31T04:30:22;98347.5;;;19.41;74.82
23361;BME280;11852;50.082;18.554;2023-07-31T04:31:27;98348.0;;;19.4;74.64
23361;BME280;11852;50.082;18.554;2023-07-31T04:32:32;98346.5;;;19.4;74.79
23361;BME280;11852;50.082;18.554;2023-07-31T04:33:37;98346.0;;;19.42;74.76
23361;BME280;11852;50.082;18.554;2023-07-31T04:34:42;98347.5;;;19.44;74.76
23361;BME280;11852;50.082;18.554;2023-07-31T04:35:50;98347.0;;;19.44;74.57
23361;BME280;11852;50.082;18.554;2023-07-31T04:36:54;98350.5;;;19.47;74.5
23361;BME280;11852;50.082;18.554;2023-07-31T04:37:59;98351.0;;;19.49;74.42
23361;BME280;11852;50.082;18.554;2023-07-31T04:39:04;98353.0;;;19.52;74.22
23361;BME280;11852;50.082;18.554;2023-07-31T04:40:08;98351.0;;;19.53;74.19
23361;BME280;11852;50.082;18.554;2023-07-31T04:41:13;98350.5;;;19.54;73.97
23361;BME280;11852;50.082;18.554;2023-07-31T04:42:18;98350.0;;;19.58;73.73
23361;BME280;11852;50.082;18.554;2023-07-31T04:43:23;98350.5;;;19.48;73.88
23361;BME280;11852;50.082;18.554;2023-07-31T04:44:27;98353.5;;;19.56;73.79
23361;BME280;11852;50.082;18.554;2023-07-31T04:45:32;98352.0;;;19.56;73.66
23361;BME280;11852;50.082;18.554;2023-07-31T04:46:37;98354.0;;;19.63;73.57
23361;BME280;11852;50.082;18.554;2023-07-31T04:47:42;98353.5;;;19.66;73.53
23361;BME280;11852;50.082;18.554;2023-07-31T04:48:47;98356.0;;;19.62;73.19
23361;BME280;11852;50.082;18.554;2023-07-31T04:49:52;98356.0;;;19.65;72.86
23361;BME280;11852;50.082;18.554;2023-07-31T04:50:56;98355.51;;;19.65;72.86
23361;BME280;11852;50.082;18.554;2023-07-31T04:52:01;98357.0;;;19.68;72.76
23361;BME280;11852;50.082;18.554;2023-07-31T04:53:06;98354.0;;;19.72;72.65
23361;BME280;11852;50.082;18.554;2023-07-31T04:54:11;98355.0;;;19.67;71.86
23361;BME280;11852;50.082;18.554;2023-07-31T04:55:15;98355.0;;;19.69;71.73
23361;BME280;11852;50.082;18.554;2023-07-31T04:56:20;98353.5;;;19.68;71.68
23361;BME280;11852;50.082;18.554;2023-07-31T04:57:25;98354.0;;;19.68;71.93
23361;BME280;11852;50.082;18.554;2023-07-31T04:58:30;98353.0;;;19.63;71.99
23361;BME280;11852;50.082;18.554;2023-07-31T04:59:34;98355.0;;;19.69;71.65
23361;BME280;11852;50.082;18.554;2023-07-31T05:00:39;98348.0;;;19.55;72.08
23361;BME280;11852;50.082;18.554;2023-07-31T05:01:44;98351.5;;;19.6;71.82
23361;BME280;11852;50.082;18.554;2023-07-31T05:02:49;98352.0;;;19.69;71.71
23361;BME280;11852;50.082;18.554;2023-07-31T05:03:54;98350.0;;;19.69;71.63
23361;BME280;11852;50.082;18.554;2023-07-31T05:04:58;98350.0;;;19.71;71.41
23361;BME280;11852;50.082;18.554;2023-07-31T05:06:03;98347.5;;;19.72;71.37
23361;BME280;11852;50.082;18.554;2023-07-31T05:07:08;98347.5;;;19.72;71.43
23361;BME280;11852;50.082;18.554;2023-07-31T05:08:13;98348.5;;;19.8;71.1
23361;BME280;11852;50.082;18.554;2023-07-31T05:09:17;98347.0;;;19.71;71.37
23361;BME280;11852;50.082;18.554;2023-07-31T05:10:22;98348.5;;;19.79;71.08
23361;BME280;11852;50.082;18.554;2023-07-31T05:11:27;98350.5;;;19.83;70.9
23361;BME280;11852;50.082;18.554;2023-07-31T05:12:32;98351.0;;;19.69;70.78
23361;BME280;11852;50.082;18.554;2023-07-31T05:13:36;98349.5;;;19.53;70.71
23361;BME280;11852;50.082;18.554;2023-07-31T05:14:41;98348.0;;;19.65;70.15
23361;BME280;11852;50.082;18.554;2023-07-31T05:15:46;98346.5;;;19.36;69.9
23361;BME280;11852;50.082;18.554;2023-07-31T05:16:51;98343.0;;;19.66;69.37
23361;BME280;11852;50.082;18.554;2023-07-31T05:17:55;98346.5;;;19.5;70.08
23361;BME280;11852;50.082;18.554;2023-07-31T05:19:00;98344.5;;;19.7;69.53
23361;BME280;11852;50.082;18.554;2023-07-31T05:20:05;98343.5;;;19.69;69.61
23361;BME280;11852;50.082;18.554;2023-07-31T05:21:10;98341.0;;;19.66;69.69
23361;BME280;11852;50.082;18.554;2023-07-31T05:22:15;98346.0;;;19.78;69.43
23361;BME280;11852;50.082;18.554;2023-07-31T05:23:20;98345.5;;;19.81;69.25
23361;BME280;11852;50.082;18.554;2023-07-31T05:24:24;98350.0;;;19.88;69.22
23361;BME280;11852;50.082;18.554;2023-07-31T05:25:29;98348.5;;;19.82;69.39
23361;BME280;11852;50.082;18.554;2023-07-31T05:26:34;98351.0;;;19.92;68.95
23361;BME280;11852;50.082;18.554;2023-07-31T05:27:39;98350.0;;;19.98;68.69
23361;BME280;11852;50.082;18.554;2023-07-31T05:28:44;98349.5;;;19.86;69.17
23361;BME280;11852;50.082;18.554;2023-07-31T05:29:48;98351.0;;;19.92;69.01
23361;BME280;11852;50.082;18.554;2023-07-31T05:30:58;98353.0;;;19.7;69.21
23361;BME280;11852;50.082;18.554;2023-07-31T05:31:58;98353.5;;;19.92;68.75
23361;BME280;11852;50.082;18.554;2023-07-31T05:33:02;98354.0;;;20.05;68.63
23361;BME280;11852;50.082;18.554;2023-07-31T05:34:13;98355.01;;;20.15;68.93
23361;BME280;11852;50.082;18.554;2023-07-31T05:35:18;98353.0;;;20.2;68.6
23361;BME280;11852;50.082;18.554;2023-07-31T05:36:23;98354.0;;;19.95;69.15
23361;BME280;11852;50.082;18.554;2023-07-31T05:37:28;98352.0;;;19.81;68.54
23361;BME280;11852;50.082;18.554;2023-07-31T05:38:32;98353.0;;;19.9;68.24
23361;BME280;11852;50.082;18.554;2023-07-31T05:39:37;98355.0;;;19.89;68.61
23361;BME280;11852;50.082;18.554;2023-07-31T05:40:42;98353.0;;;19.95;68.72
23361;BME280;11852;50.082;18.554;2023-07-31T05:41:47;98354.0;;;20.03;68.6
23361;BME280;11852;50.082;18.554;2023-07-31T05:42:51;98354.5;;;20.05;68.08
23361;BME280;11852;50.082;18.554;2023-07-31T05:43:56;98355.5;;;20.16;68.04
23361;BME280;11852;50.082;18.554;2023-07-31T05:45:01;98356.0;;;20.12;68.23
23361;BME280;11852;50.082;18.554;2023-07-31T05:46:06;98356.99;;;20.18;67.79
23361;BME280;11852;50.082;18.554;2023-07-31T05:47:10;98357.5;;;20.22;67.59
23361;BME280;11852;50.082;18.554;2023-07-31T05:48:15;98356.49;;;20.25;67.6
23361;BME280;11852;50.082;18.554;2023-07-31T05:49:20;98358.0;;;20.24;67.62
23361;BME280;11852;50.082;18.554;2023-07-31T05:50:25;98356.0;;;19.91;68.17